sensor_id;sensor_type;location;lat;lon;timestamp;pressure;altitude;pressure_sealevel;temperature
60731;BMP280;46580;52.114;11.674;2023-06-01T00:52:02;101420.13;;;15.60
60731;BMP280;46580;52.114;11.674;2023-06-01T00:54:34;101420.13;;;15.60
60731;BMP280;46580;52.114;11.674;2023-06-01T00:57:00;101419.13;;;15.51
60731;BMP280;46580;52.114;11.674;2023-06-01T00:59:29;101416.81;;;15.48
60731;BMP280;46580;52.114;11.674;2023-06-01T01:01:58;101413.38;;;15.48
60731;BMP280;46580;52.114;11.674;2023-06-01T01:04:24;101418.13;;;15.43
60731;BMP280;46580;52.114;11.674;2023-06-01T01:07:13;101421.69;;;15.42
60731;BMP280;46580;52.114;11.674;2023-06-01T01:17:33;101421.03;;;15.00
60731;BMP280;46580;52.114;11.674;2023-06-01T01:23:23;101433.69;;;14.83
60731;BMP280;46580;52.114;11.674;2023-06-01T01:26:40;101439.69;;;14.94
60731;BMP280;46580;52.114;11.674;2023-06-01T01:29:10;101436.44;;;14.82
60731;BMP280;46580;52.114;11.674;2023-06-01T01:31:39;101433.25;;;14.58
60731;BMP280;46580;52.114;11.674;2023-06-01T01:34:09;101435.59;;;14.61
60731;BMP280;46580;52.114;11.674;2023-06-01T01:36:35;101431.31;;;14.40
60731;BMP280;46580;52.114;11.674;2023-06-01T01:39:03;101433.44;;;14.35
60731;BMP280;46580;52.114;11.674;2023-06-01T01:41:29;101433.38;;;14.26
60731;BMP280;46580;52.114;11.674;2023-06-01T01:43:56;101435.13;;;14.26
60731;BMP280;46580;52.114;11.674;2023-06-01T01:46:26;101432.66;;;14.24
60731;BMP280;46580;52.114;11.674;2023-06-01T01:49:12;101431.00;;;14.23
60731;BMP280;46580;52.114;11.674;2023-06-01T01:51:53;101436.66;;;14.17
60731;BMP280;46580;52.114;11.674;2023-06-01T01:54:25;101437.53;;;14.07
60731;BMP280;46580;52.114;11.674;2023-06-01T01:56:53;101434.72;;;13.99
60731;BMP280;46580;52.114;11.674;2023-06-01T01:59:22;101433.56;;;13.93
60731;BMP280;46580;52.114;11.674;2023-06-01T02:01:48;101434.13;;;13.96
60731;BMP280;46580;52.114;11.674;2023-06-01T02:04:22;101434.59;;;13.90
60731;BMP280;46580;52.114;11.674;2023-06-01T02:06:48;101436.09;;;13.82
60731;BMP280;46580;52.114;11.674;2023-06-01T02:09:14;101431.06;;;13.80
60731;BMP280;46580;52.114;11.674;2023-06-01T02:11:40;101430.97;;;13.71
60731;BMP280;46580;52.114;11.674;2023-06-01T02:14:05;101437.53;;;13.64
60731;BMP280;46580;52.114;11.674;2023-06-01T02:16:31;101429.69;;;13.66
60731;BMP280;46580;52.114;11.674;2023-06-01T02:18:56;101441.19;;;13.51
60731;BMP280;46580;52.114;11.674;2023-06-01T02:21:23;101435.78;;;13.43
60731;BMP280;46580;52.114;11.674;2023-06-01T02:23:52;101431.06;;;13.38
60731;BMP280;46580;52.114;11.674;2023-06-01T02:26:20;101440.00;;;13.55
60731;BMP280;46580;52.114;11.674;2023-06-01T02:28:46;101428.16;;;13.53
60731;BMP280;46580;52.114;11.674;2023-06-01T02:31:13;101425.44;;;13.33
60731;BMP280;46580;52.114;11.674;2023-06-01T02:33:39;101428.59;;;13.25
60731;BMP280;46580;52.114;11.674;2023-06-01T02:36:08;101424.84;;;13.19
60731;BMP280;46580;52.114;11.674;2023-06-01T02:38:36;101420.00;;;13.03
60731;BMP280;46580;52.114;11.674;2023-06-01T02:41:01;101428.94;;;13.10
60731;BMP280;46580;52.114;11.674;2023-06-01T02:43:28;101420.91;;;12.92
60731;BMP280;46580;52.114;11.674;2023-06-01T02:45:54;101431.19;;;12.81
60731;BMP280;46580;52.114;11.674;2023-06-01T02:48:26;101427.97;;;12.67
60731;BMP280;46580;52.114;11.674;2023-06-01T02:50:53;101423.69;;;12.78
60731;BMP280;46580;52.114;11.674;2023-06-01T02:53:18;101426.03;;;12.81
60731;BMP280;46580;52.114;11.674;2023-06-01T02:55:44;101423.22;;;12.84
60731;BMP280;46580;52.114;11.674;2023-06-01T02:58:16;101420.75;;;12.72
60731;BMP280;46580;52.114;11.674;2023-06-01T03:00:42;101424.59;;;12.54
60731;BMP280;46580;52.114;11.674;2023-06-01T03:03:08;101416.22;;;12.40
60731;BMP280;46580;52.114;11.674;2023-06-01T03:05:34;101426.97;;;12.46
60731;BMP280;46580;52.114;11.674;2023-06-01T03:08:01;101426.81;;;12.48
60731;BMP280;46580;52.114;11.674;2023-06-01T03:10:52;101424.84;;;12.28
60731;BMP280;46580;52.114;11.674;2023-06-01T03:13:20;101428.97;;;12.08
60731;BMP280;46580;52.114;11.674;2023-06-01T03:15:46;101428.41;;;11.92
60731;BMP280;46580;52.114;11.674;2023-06-01T03:18:13;101425.09;;;11.90
60731;BMP280;46580;52.114;11.674;2023-06-01T03:20:39;101434.75;;;11.76
60731;BMP280;46580;52.114;11.674;2023-06-01T03:23:05;101445.28;;;11.61
60731;BMP280;46580;52.114;11.674;2023-06-01T03:25:30;101433.75;;;11.54
60731;BMP280;46580;52.114;11.674;2023-06-01T03:27:58;101444.34;;;11.62
60731;BMP280;46580;52.114;11.674;2023-06-01T03:30:24;101441.97;;;11.59
60731;BMP280;46580;52.114;11.674;2023-06-01T03:32:50;101440.06;;;11.51
60731;BMP280;46580;52.114;11.674;2023-06-01T03:35:16;101447.78;;;11.51
60731;BMP280;46580;52.114;11.674;2023-06-01T03:37:45;101451.91;;;11.29
60731;BMP280;46580;52.114;11.674;2023-06-01T03:40:12;101457.53;;;11.21
60731;BMP280;46580;52.114;11.674;2023-06-01T03:42:46;101452.19;;;11.24
60731;BMP280;46580;52.114;11.674;2023-06-01T03:45:12;101460.75;;;11.25
60731;BMP280;46580;52.114;11.674;2023-06-01T03:47:38;101453.75;;;11.39
60731;BMP280;46580;52.114;11.674;2023-06-01T03:50:05;101458.41;;;11.34
60731;BMP280;46580;52.114;11.674;2023-06-01T03:52:39;101446.91;;;11.26
60731;BMP280;46580;52.114;11.674;2023-06-01T03:55:05;101451.25;;;11.25
60731;BMP280;46580;52.114;11.674;2023-06-01T03:57:34;101456.44;;;11.50
60731;BMP280;46580;52.114;11.674;2023-06-01T04:00:04;101449.03;;;11.45
60731;BMP280;46580;52.114;11.674;2023-06-01T04:02:51;101436.25;;;11.44
60731;BMP280;46580;52.114;11.674;2023-06-01T04:05:20;101443.75;;;11.22
60731;BMP280;46580;52.114;11.674;2023-06-01T04:07:47;101433.53;;;11.09
60731;BMP280;46580;52.114;11.674;2023-06-01T04:10:13;101436.94;;;11.21
60731;BMP280;46580;52.114;11.674;2023-06-01T04:12:45;101440.53;;;11.07
60731;BMP280;46580;52.114;11.674;2023-06-01T04:15:12;101437.06;;;11.32
60731;BMP280;46580;52.114;11.674;2023-06-01T04:17:38;101442.22;;;11.32
60731;BMP280;46580;52.114;11.674;2023-06-01T04:20:14;101436.25;;;11.44
60731;BMP280;46580;52.114;11.674;2023-06-01T04:22:41;101437.56;;;11.49
60731;BMP280;46580;52.114;11.674;2023-06-01T04:25:15;101435.28;;;11.69
60731;BMP280;46580;52.114;11.674;2023-06-01T04:27:52;101438.56;;;11.71
60731;BMP280;46580;52.114;11.674;2023-06-01T04:30:20;101436.81;;;11.71
60731;BMP280;46580;52.114;11.674;2023-06-01T04:32:47;101436.91;;;11.70
60731;BMP280;46580;52.114;11.674;2023-06-01T04:35:21;101440.53;;;11.68
60731;BMP280;46580;52.114;11.674;2023-06-01T04:37:49;101443.84;;;11.57
60731;BMP280;46580;52.114;11.674;2023-06-01T04:40:17;101446.00;;;11.63
60731;BMP280;46580;52.114;11.674;2023-06-01T04:42:43;101442.56;;;11.75
60731;BMP280;46580;52.114;11.674;2023-06-01T04:45:16;101430.81;;;12.06
60731;BMP280;46580;52.114;11.674;2023-06-01T04:47:43;101432.25;;;11.75
60731;BMP280;46580;52.114;11.674;2023-06-01T04:50:13;101434.97;;;11.61
60731;BMP280;46580;52.114;11.674;2023-06-01T04:52:41;101440.84;;;11.27
60731;BMP280;46580;52.114;11.674;2023-06-01T04:55:26;101447.03;;;11.24
60731;BMP280;46580;52.114;11.674;2023-06-01T04:57:51;101437.19;;;11.31
60731;BMP280;46580;52.114;11.674;2023-06-01T05:00:17;101436.66;;;11.38
60731;BMP280;46580;52.114;11.674;2023-06-01T05:02:43;101429.19;;;11.70
60731;BMP280;46580;52.114;11.674;2023-06-01T05:05:12;101422.19;;;11.72
60731;BMP280;46580;52.114;11.674;2023-06-01T05:07:38;101428.28;;;11.94
60731;BMP280;46580;52.114;11.674;2023-06-01T05:10:10;101431.19;;;11.89
60731;BMP280;46580;52.114;11.674;2023-06-01T05:12:36;101431.00;;;11.92
60731;BMP280;46580;52.114;11.674;2023-06-01T05:15:09;101431.00;;;11.80
60731;BMP280;46580;52.114;11.674;2023-06-01T05:17:36;101435.53;;;11.89
60731;BMP280;46580;52.114;11.674;2023-06-01T05:20:08;101430.41;;;11.77
60731;BMP280;46580;52.114;11.674;2023-06-01T05:22:35;101444.25;;;11.64
60731;BMP280;46580;52.114;11.674;2023-06-01T05:25:05;101442.81;;;11.48
60731;BMP280;46580;52.114;11.674;2023-06-01T05:27:34;101444.16;;;11.41
60731;BMP280;46580;52.114;11.674;2023-06-01T05:29:59;101432.88;;;11.66
60731;BMP280;46580;52.114;11.674;2023-06-01T05:32:25;101435.09;;;11.95
60731;BMP280;46580;52.114;11.674;2023-06-01T05:34:54;101428.22;;;12.18
60731;BMP280;46580;52.114;11.674;2023-06-01T05:37:20;101424.84;;;12.28
60731;BMP280;46580;52.114;11.674;2023-06-01T05:39:58;101426.06;;;12.35
60731;BMP280;46580;52.114;11.674;2023-06-01T05:42:23;101424.09;;;12.39
60731;BMP280;46580;52.114;11.674;2023-06-01T05:44:49;101427.00;;;12.34
60731;BMP280;46580;52.114;11.674;2023-06-01T05:47:14;101427.81;;;12.35
60731;BMP280;46580;52.114;11.674;2023-06-01T05:49:40;101425.78;;;12.27
60731;BMP280;46580;52.114;11.674;2023-06-01T05:52:10;101431.72;;;12.40
60731;BMP280;46580;52.114;11.674;2023-06-01T05:54:39;101423.69;;;12.55
60731;BMP280;46580;52.114;11.674;2023-06-01T05:57:05;101429.91;;;12.53
60731;BMP280;46580;52.114;11.674;2023-06-01T05:59:34;101426.63;;;12.62
60731;BMP280;46580;52.114;11.674;2023-06-01T06:02:00;101425.06;;;12.71
60731;BMP280;46580;52.114;11.674;2023-06-01T06:04:26;101425.53;;;12.65
60731;BMP280;46580;52.114;11.674;2023-06-01T06:07:04;101431.53;;;12.77
60731;BMP280;46580;52.114;11.674;2023-06-01T06:09:30;101426.75;;;12.83
60731;BMP280;46580;52.114;11.674;2023-06-01T06:11:56;101423.59;;;13.01
60731;BMP280;46580;52.114;11.674;2023-06-01T06:14:22;101423.59;;;12.90
60731;BMP280;46580;52.114;11.674;2023-06-01T06:16:47;101430.63;;;12.88
60731;BMP280;46580;52.114;11.674;2023-06-01T06:19:16;101421.31;;;12.75
60731;BMP280;46580;52.114;11.674;2023-06-01T06:21:59;101432.97;;;12.58
60731;BMP280;46580;52.114;11.674;2023-06-01T06:24:33;101428.47;;;12.49
60731;BMP280;46580;52.114;11.674;2023-06-01T06:26:58;101422.56;;;12.36
60731;BMP280;46580;52.114;11.674;2023-06-01T06:29:24;101429.53;;;12.24
60731;BMP280;46580;52.114;11.674;2023-06-01T06:31:52;101427.41;;;12.18
60731;BMP280;46580;52.114;11.674;2023-06-01T06:34:20;101422.44;;;12.15
60731;BMP280;46580;52.114;11.674;2023-06-01T06:36:45;101418.09;;;12.15
60731;BMP280;46580;52.114;11.674;2023-06-01T06:39:14;101421.16;;;12.20
60731;BMP280;46580;52.114;11.674;2023-06-01T06:41:41;101418.75;;;12.29
60731;BMP280;46580;52.114;11.674;2023-06-01T06:44:07;101421.41;;;12.17
60731;BMP280;46580;52.114;11.674;2023-06-01T06:46:32;101418.00;;;12.17
60731;BMP280;46580;52.114;11.674;2023-06-01T06:49:01;101421.88;;;12.22
60731;BMP280;46580;52.114;11.674;2023-06-01T06:51:27;101426.03;;;12.25
60731;BMP280;46580;52.114;11.674;2023-06-01T06:53:52;101421.78;;;12.24
60731;BMP280;46580;52.114;11.674;2023-06-01T06:56:25;101428.31;;;12.17
60731;BMP280;46580;52.114;11.674;2023-06-01T06:58:56;101427.41;;;12.18
60731;BMP280;46580;52.114;11.674;2023-06-01T07:01:26;101428.16;;;12.30
60731;BMP280;46580;52.114;11.674;2023-06-01T07:03:52;101421.72;;;12.36
60731;BMP280;46580;52.114;11.674;2023-06-01T07:06:18;101422.38;;;12.50
60731;BMP280;46580;52.114;11.674;2023-06-01T07:08:43;101426.59;;;12.74
60731;BMP280;46580;52.114;11.674;2023-06-01T07:11:18;101421.19;;;12.66
60731;BMP280;46580;52.114;11.674;2023-06-01T07:13:53;101423.47;;;12.58
60731;BMP280;46580;52.114;11.674;2023-06-01T07:16:23;101408.81;;;12.59
60731;BMP280;46580;52.114;11.674;2023-06-01T07:18:50;101426.88;;;12.59
60731;BMP280;46580;52.114;11.674;2023-06-01T07:21:19;101420.47;;;12.64
60731;BMP280;46580;52.114;11.674;2023-06-01T07:23:47;101416.53;;;12.82
60731;BMP280;46580;52.114;11.674;2023-06-01T07:26:12;101426.03;;;12.81
60731;BMP280;46580;52.114;11.674;2023-06-01T07:28:43;101426.66;;;12.84
60731;BMP280;46580;52.114;11.674;2023-06-01T07:31:31;101422.41;;;12.94
60731;BMP280;46580;52.114;11.674;2023-06-01T07:34:00;101422.34;;;13.06
60731;BMP280;46580;52.114;11.674;2023-06-01T07:36:31;101425.06;;;13.16
60731;BMP280;46580;52.114;11.674;2023-06-01T07:39:11;101426.94;;;13.24
60731;BMP280;46580;52.114;11.674;2023-06-01T07:41:45;101424.94;;;13.06
60731;BMP280;46580;52.114;11.674;2023-06-01T07:44:22;101427.88;;;13.13
60731;BMP280;46580;52.114;11.674;2023-06-01T07:46:48;101421.06;;;13.12
60731;BMP280;46580;52.114;11.674;2023-06-01T07:49:20;101417.91;;;13.19
60731;BMP280;46580;52.114;11.674;2023-06-01T07:51:52;101419.44;;;13.32
60731;BMP280;46580;52.114;11.674;2023-06-01T07:54:18;101407.56;;;13.73
60731;BMP280;46580;52.114;11.674;2023-06-01T07:56:44;101414.50;;;13.83
60731;BMP280;46580;52.114;11.674;2023-06-01T07:59:12;101414.00;;;13.89
60731;BMP280;46580;52.114;11.674;2023-06-01T08:01:48;101405.81;;;13.84
60731;BMP280;46580;52.114;11.674;2023-06-01T08:04:14;101404.00;;;13.95
60731;BMP280;46580;52.114;11.674;2023-06-01T08:06:39;101401.56;;;13.94
60731;BMP280;46580;52.114;11.674;2023-06-01T08:09:07;101411.19;;;13.92
60731;BMP280;46580;52.114;11.674;2023-06-01T08:11:32;101410.56;;;14.10
60731;BMP280;46580;52.114;11.674;2023-06-01T08:14:07;101418.44;;;14.19
60731;BMP280;46580;52.114;11.674;2023-06-01T08:16:34;101405.88;;;14.14
60731;BMP280;46580;52.114;11.674;2023-06-01T08:19:00;101415.19;;;14.06
60731;BMP280;46580;52.114;11.674;2023-06-01T08:21:29;101410.81;;;14.07
60731;BMP280;46580;52.114;11.674;2023-06-01T08:23:55;101412.25;;;14.00
60731;BMP280;46580;52.114;11.674;2023-06-01T08:26:22;101412.81;;;14.14
60731;BMP280;46580;52.114;11.674;2023-06-01T08:28:56;101409.56;;;14.32
60731;BMP280;46580;52.114;11.674;2023-06-01T08:31:27;101397.25;;;14.45
60731;BMP280;46580;52.114;11.674;2023-06-01T08:34:02;101407.97;;;14.20
60731;BMP280;46580;52.114;11.674;2023-06-01T08:36:30;101415.84;;;14.19
60731;BMP280;46580;52.114;11.674;2023-06-01T08:39:28;101401.28;;;14.38
60731;BMP280;46580;52.114;11.674;2023-06-01T08:41:58;101403.41;;;14.64
60731;BMP280;46580;52.114;11.674;2023-06-01T08:44:27;101391.25;;;14.75
60731;BMP280;46580;52.114;11.674;2023-06-01T08:46:59;101397.13;;;14.97
60731;BMP280;46580;52.114;11.674;2023-06-01T08:49:25;101393.91;;;15.04
60731;BMP280;46580;52.114;11.674;2023-06-01T08:51:53;101385.00;;;15.26
60731;BMP280;46580;52.114;11.674;2023-06-01T08:54:23;101372.53;;;15.50
60731;BMP280;46580;52.114;11.674;2023-06-01T08:56:48;101372.75;;;15.67
60731;BMP280;46580;52.114;11.674;2023-06-01T08:59:16;101363.22;;;15.86
60731;BMP280;46580;52.114;11.674;2023-06-01T09:01:42;101362.63;;;16.02
60731;BMP280;46580;52.114;11.674;2023-06-01T09:04:08;101370.81;;;15.60
60731;BMP280;46580;52.114;11.674;2023-06-01T09:06:35;101367.34;;;15.88
60731;BMP280;46580;52.114;11.674;2023-06-01T09:09:20;101356.06;;;16.26
60731;BMP280;46580;52.114;11.674;2023-06-01T09:12:42;101353.59;;;16.16
60731;BMP280;46580;52.114;11.674;2023-06-01T09:17:45;101354.44;;;16.16
60731;BMP280;46580;52.114;11.674;2023-06-01T09:20:13;101355.63;;;16.31
60731;BMP280;46580;52.114;11.674;2023-06-01T09:22:45;101354.97;;;16.10
60731;BMP280;46580;52.114;11.674;2023-06-01T09:25:13;101358.94;;;16.14
60731;BMP280;46580;52.114;11.674;2023-06-01T09:28:01;101359.31;;;16.00
60731;BMP280;46580;52.114;11.674;2023-06-01T09:30:40;101361.13;;;15.62
60731;BMP280;46580;52.114;11.674;2023-06-01T09:33:14;101356.25;;;15.86
60731;BMP280;46580;52.114;11.674;2023-06-01T09:35:46;101353.88;;;16.22
60731;BMP280;46580;52.114;11.674;2023-06-01T09:38:20;101357.16;;;16.33
60731;BMP280;46580;52.114;11.674;2023-06-01T09:40:59;101352.94;;;16.23
60731;BMP280;46580;52.114;11.674;2023-06-01T09:43:34;101337.00;;;16.72
60731;BMP280;46580;52.114;11.674;2023-06-01T09:46:07;101343.53;;;17.04
60731;BMP280;46580;52.114;11.674;2023-06-01T09:48:33;101334.47;;;17.17
60731;BMP280;46580;52.114;11.674;2023-06-01T09:51:00;101328.09;;;17.29
60731;BMP280;46580;52.114;11.674;2023-06-01T09:53:26;101328.06;;;17.64
60731;BMP280;46580;52.114;11.674;2023-06-01T09:56:01;101323.13;;;17.61
60731;BMP280;46580;52.114;11.674;2023-06-01T09:58:27;101312.81;;;17.69
60731;BMP280;46580;52.114;11.674;2023-06-01T10:00:53;101320.69;;;16.98
60731;BMP280;46580;52.114;11.674;2023-06-01T10:03:24;101320.41;;;17.01
60731;BMP280;46580;52.114;11.674;2023-06-01T10:06:18;101310.28;;;16.89
60731;BMP280;46580;52.114;11.674;2023-06-01T10:08:43;101302.53;;;17.15
60731;BMP280;46580;52.114;11.674;2023-06-01T10:11:09;101296.34;;;17.51
60731;BMP280;46580;52.114;11.674;2023-06-01T10:13:36;101298.56;;;17.90
60731;BMP280;46580;52.114;11.674;2023-06-01T10:16:11;101290.28;;;17.77
60731;BMP280;46580;52.114;11.674;2023-06-01T10:18:38;101308.13;;;17.99
60731;BMP280;46580;52.114;11.674;2023-06-01T10:21:04;101296.78;;;18.07
60731;BMP280;46580;52.114;11.674;2023-06-01T10:23:34;101298.84;;;18.21
60731;BMP280;46580;52.114;11.674;2023-06-01T10:26:06;101288.59;;;18.03
60731;BMP280;46580;52.114;11.674;2023-06-01T10:31:41;101284.38;;;18.19
60731;BMP280;46580;52.114;11.674;2023-06-01T10:34:08;101283.59;;;18.09
60731;BMP280;46580;52.114;11.674;2023-06-01T10:39:31;101283.50;;;18.52
60731;BMP280;46580;52.114;11.674;2023-06-01T10:41:58;101279.25;;;18.34
60731;BMP280;46580;52.114;11.674;2023-06-01T10:54:56;101273.00;;;18.27
60731;BMP280;46580;52.114;11.674;2023-06-01T10:57:25;101269.84;;;18.41
60731;BMP280;46580;52.114;11.674;2023-06-01T11:00:22;101269.00;;;18.58
60731;BMP280;46580;52.114;11.674;2023-06-01T18:10:25;101059.56;;;17.67
60731;BMP280;46580;52.114;11.674;2023-06-01T18:12:50;101062.09;;;17.59
60731;BMP280;46580;52.114;11.674;2023-06-01T18:15:15;101071.41;;;17.62
60731;BMP280;46580;52.114;11.674;2023-06-01T18:17:41;101075.09;;;17.51
60731;BMP280;46580;52.114;11.674;2023-06-01T18:20:06;101072.34;;;17.36
60731;BMP280;46580;52.114;11.674;2023-06-01T18:22:32;101071.53;;;17.35
60731;BMP280;46580;52.114;11.674;2023-06-01T18:24:57;101080.31;;;17.34
60731;BMP280;46580;52.114;11.674;2023-06-01T18:27:22;101065.16;;;17.30
60731;BMP280;46580;52.114;11.674;2023-06-01T18:29:48;101078.97;;;17.31
60731;BMP280;46580;52.114;11.674;2023-06-01T18:32:13;101068.41;;;17.32
60731;BMP280;46580;52.114;11.674;2023-06-01T18:34:38;101072.94;;;17.30
60731;BMP280;46580;52.114;11.674;2023-06-01T18:37:04;101082.41;;;17.31
60731;BMP280;46580;52.114;11.674;2023-06-01T18:39:30;101075.13;;;17.17
60731;BMP280;46580;52.114;11.674;2023-06-01T18:41:55;101084.03;;;16.98
60731;BMP280;46580;52.114;11.674;2023-06-01T18:44:21;101083.63;;;16.93
60731;BMP280;46580;52.114;11.674;2023-06-01T18:46:46;101086.78;;;16.87
60731;BMP280;46580;52.114;11.674;2023-06-01T18:49:12;101091.63;;;16.82
60731;BMP280;46580;52.114;11.674;2023-06-01T18:51:38;101097.09;;;16.79
60731;BMP280;46580;52.114;11.674;2023-06-01T18:54:03;101090.97;;;16.71
60731;BMP280;46580;52.114;11.674;2023-06-01T18:56:31;101096.34;;;16.70
60731;BMP280;46580;52.114;11.674;2023-06-01T18:58:56;101097.59;;;16.66
60731;BMP280;46580;52.114;11.674;2023-06-01T19:01:22;101103.50;;;16.58
60731;BMP280;46580;52.114;11.674;2023-06-01T19:03:48;101108.56;;;16.60
60731;BMP280;46580;52.114;11.674;2023-06-01T19:06:15;101100.78;;;16.60
60731;BMP280;46580;52.114;11.674;2023-06-01T19:08:41;101108.31;;;16.54
60731;BMP280;46580;52.114;11.674;2023-06-01T19:11:07;101107.59;;;16.61
60731;BMP280;46580;52.114;11.674;2023-06-01T19:16:10;101107.94;;;16.49
60731;BMP280;46580;52.114;11.674;2023-06-01T19:18:36;101116.81;;;16.56
60731;BMP280;46580;52.114;11.674;2023-06-01T19:21:11;101119.69;;;16.53
60731;BMP280;46580;52.114;11.674;2023-06-01T19:23:42;101110.56;;;16.39
60731;BMP280;46580;52.114;11.674;2023-06-01T19:26:08;101121.44;;;16.26
60731;BMP280;46580;52.114;11.674;2023-06-01T19:28:34;101120.13;;;16.13
60731;BMP280;46580;52.114;11.674;2023-06-01T19:30:59;101116.88;;;16.01
60731;BMP280;46580;52.114;11.674;2023-06-01T19:33:25;101112.91;;;15.98
60731;BMP280;46580;52.114;11.674;2023-06-01T19:35:51;101122.19;;;15.91
60731;BMP280;46580;52.114;11.674;2023-06-01T19:38:16;101124.78;;;15.91
60731;BMP280;46580;52.114;11.674;2023-06-01T19:40:46;101131.78;;;15.81
60731;BMP280;46580;52.114;11.674;2023-06-01T19:43:39;101139.69;;;15.80
60731;BMP280;46580;52.114;11.674;2023-06-01T19:46:19;101140.00;;;15.67
60731;BMP280;46580;52.114;11.674;2023-06-01T19:48:46;101140.41;;;15.54
60731;BMP280;46580;52.114;11.674;2023-06-01T19:51:12;101143.13;;;15.62
60731;BMP280;46580;52.114;11.674;2023-06-01T19:53:42;101140.94;;;15.57
60731;BMP280;46580;52.114;11.674;2023-06-01T19:56:10;101140.41;;;15.63
60731;BMP280;46580;52.114;11.674;2023-06-01T19:58:35;101146.13;;;15.57
60731;BMP280;46580;52.114;11.674;2023-06-01T20:01:01;101143.41;;;15.49
60731;BMP280;46580;52.114;11.674;2023-06-01T20:03:34;101147.78;;;15.40
60731;BMP280;46580;52.114;11.674;2023-06-01T20:06:01;101150.50;;;15.38
60731;BMP280;46580;52.114;11.674;2023-06-01T20:08:27;101149.41;;;15.31
60731;BMP280;46580;52.114;11.674;2023-06-01T20:10:52;101144.50;;;15.28
60731;BMP280;46580;52.114;11.674;2023-06-01T20:13:17;101142.28;;;15.24
60731;BMP280;46580;52.114;11.674;2023-06-01T20:15:43;101151.28;;;15.11
60731;BMP280;46580;52.114;11.674;2023-06-01T20:18:10;101151.56;;;15.08
60731;BMP280;46580;52.114;11.674;2023-06-01T20:20:38;101153.88;;;15.11
60731;BMP280;46580;52.114;11.674;2023-06-01T20:23:08;101158.66;;;15.06
60731;BMP280;46580;52.114;11.674;2023-06-01T20:25:38;101153.31;;;14.98
60731;BMP280;46580;52.114;11.674;2023-06-01T20:28:05;101147.31;;;14.98
60731;BMP280;46580;52.114;11.674;2023-06-01T20:33:07;101148.31;;;14.77
60731;BMP280;46580;52.114;11.674;2023-06-01T20:35:32;101154.44;;;14.76
60731;BMP280;46580;52.114;11.674;2023-06-01T20:37:58;101141.84;;;14.62
60731;BMP280;46580;52.114;11.674;2023-06-01T20:43:20;101146.59;;;14.57
60731;BMP280;46580;52.114;11.674;2023-06-01T20:45:57;101152.91;;;14.64
60731;BMP280;46580;52.114;11.674;2023-06-01T20:48:44;101156.28;;;14.55
60731;BMP280;46580;52.114;11.674;2023-06-01T20:51:20;101157.38;;;14.53
60731;BMP280;46580;52.114;11.674;2023-06-01T20:53:48;101164.41;;;14.42
60731;BMP280;46580;52.114;11.674;2023-06-01T20:56:18;101157.59;;;14.41
60731;BMP280;46580;52.114;11.674;2023-06-01T20:58:44;101159.66;;;14.47
60731;BMP280;46580;52.114;11.674;2023-06-01T21:01:16;101161.06;;;14.31
60731;BMP280;46580;52.114;11.674;2023-06-01T21:03:45;101170.59;;;14.30
60731;BMP280;46580;52.114;11.674;2023-06-01T21:06:10;101176.25;;;14.35
60731;BMP280;46580;52.114;11.674;2023-06-01T21:08:35;101170.25;;;14.34
60731;BMP280;46580;52.114;11.674;2023-06-01T21:11:01;101173.53;;;14.16
60731;BMP280;46580;52.114;11.674;2023-06-01T21:13:27;101186.88;;;14.12
60731;BMP280;46580;52.114;11.674;2023-06-01T21:15:52;101187.25;;;14.08
60731;BMP280;46580;52.114;11.674;2023-06-01T21:18:18;101182.09;;;14.08
60731;BMP280;46580;52.114;11.674;2023-06-01T21:20:43;101185.28;;;14.00
60731;BMP280;46580;52.114;11.674;2023-06-01T21:23:08;101185.22;;;14.11
60731;BMP280;46580;52.114;11.674;2023-06-01T21:25:35;101193.19;;;13.99
60731;BMP280;46580;52.114;11.674;2023-06-01T21:28:01;101193.09;;;13.90
60731;BMP280;46580;52.114;11.674;2023-06-01T21:30:26;101193.72;;;13.82
60731;BMP280;46580;52.114;11.674;2023-06-01T21:32:52;101202.06;;;13.75
60731;BMP280;46580;52.114;11.674;2023-06-01T21:35:17;101199.28;;;13.98
60731;BMP280;46580;52.114;11.674;2023-06-01T21:37:42;101205.09;;;13.91
60731;BMP280;46580;52.114;11.674;2023-06-01T21:40:08;101207.56;;;13.92
60731;BMP280;46580;52.114;11.674;2023-06-01T21:42:35;101209.47;;;13.79
60731;BMP280;46580;52.114;11.674;2023-06-01T21:45:03;101209.91;;;13.64
60731;BMP280;46580;52.114;11.674;2023-06-01T21:47:28;101223.88;;;13.62
60731;BMP280;46580;52.114;11.674;2023-06-01T21:49:54;101219.25;;;13.45
60731;BMP280;46580;52.114;11.674;2023-06-01T21:52:19;101220.31;;;13.43
60731;BMP280;46580;52.114;11.674;2023-06-01T21:54:44;101224.59;;;13.33
60731;BMP280;46580;52.114;11.674;2023-06-01T21:57:10;101222.81;;;13.34
60731;BMP280;46580;52.114;11.674;2023-06-01T21:59:35;101223.28;;;13.28
60731;BMP280;46580;52.114;11.674;2023-06-01T22:02:00;101222.72;;;13.24
60731;BMP280;46580;52.114;11.674;2023-06-01T22:04:26;101224.50;;;13.13
60731;BMP280;46580;52.114;11.674;2023-06-01T22:06:51;101226.50;;;13.10
60731;BMP280;46580;52.114;11.674;2023-06-01T22:09:16;101227.81;;;13.04
60731;BMP280;46580;52.114;11.674;2023-06-01T22:11:42;101231.91;;;12.96
60731;BMP280;46580;52.114;11.674;2023-06-01T22:14:08;101232.50;;;13.00
60731;BMP280;46580;52.114;11.674;2023-06-01T22:16:33;101234.63;;;12.95
60731;BMP280;46580;52.114;11.674;2023-06-01T22:18:58;101236.72;;;13.01
60731;BMP280;46580;52.114;11.674;2023-06-01T22:21:24;101236.97;;;12.98
60731;BMP280;46580;52.114;11.674;2023-06-01T22:23:49;101237.09;;;12.96
60731;BMP280;46580;52.114;11.674;2023-06-01T22:26:15;101240.03;;;12.92
60731;BMP280;46580;52.114;11.674;2023-06-01T22:28:40;101245.31;;;12.90
60731;BMP280;46580;52.114;11.674;2023-06-01T22:31:05;101249.44;;;12.93